Time;durP1;ratioP1;P1;durP2;ratioP2;P2;SDS_P1;SDS_P2;PMS_P1;PMS_P2;Temp;Humidity;BMP_temperature;BMP_pressure;BME280_temperature;BME280_humidity;BME280_pressure;Samples;Min_cycle;Max_cycle;Signal;HPM_P1;HPM_P2
2024/02/24 00:01:02;;;;;;;6.18;1.63;;;;;;;6.98;77.71;97733.00;4840369;29;20077;-82
2024/02/24 00:03:29;;;;;;;6.78;1.67;;;;;;;6.97;77.90;97731.31;4840150;29;20090;-80
2024/02/24 00:05:55;;;;;;;4.35;1.65;;;;;;;6.96;77.46;97732.28;4823990;29;20140;-83
2024/02/24 00:08:22;;;;;;;3.65;1.50;;;;;;;6.96;77.43;97740.13;4840137;29;20065;-81
2024/02/24 00:10:49;;;;;;;2.42;1.30;;;;;;;6.94;77.40;97728.94;4840183;29;20054;-80
2024/02/24 00:13:15;;;;;;;4.32;1.30;;;;;;;6.91;77.22;97733.47;4840293;29;20069;-80
2024/02/24 00:15:42;;;;;;;5.43;1.65;;;;;;;6.90;77.56;97731.81;4840363;29;20141;-84
2024/02/24 00:18:09;;;;;;;7.95;1.70;;;;;;;6.87;77.24;97726.78;4839901;29;20504;-81
2024/02/24 00:20:35;;;;;;;2.97;1.48;;;;;;;6.86;77.64;97726.91;4842945;29;20054;-80
2024/02/24 00:23:02;;;;;;;5.40;1.65;;;;;;;6.85;77.22;97727.84;4843922;29;20054;-80
2024/02/24 00:25:28;;;;;;;3.67;1.75;;;;;;;6.81;77.80;97722.03;4843671;29;20194;-84
2024/02/24 00:27:55;;;;;;;5.45;1.80;;;;;;;6.80;77.39;97722.94;4827060;29;20060;-80
2024/02/24 00:30:22;;;;;;;3.13;1.55;;;;;;;6.78;77.83;97723.06;4827224;29;20137;-81
2024/02/24 00:32:48;;;;;;;3.17;1.60;;;;;;;6.77;77.93;97726.63;4843716;29;20141;-83
2024/02/24 00:35:15;;;;;;;3.28;1.83;;;;;;;6.77;77.85;97731.06;4843361;29;20479;-80
2024/02/24 00:37:42;;;;;;;2.83;1.50;;;;;;;6.77;78.21;97731.06;4826764;29;20054;-81
2024/02/24 00:40:09;;;;;;;3.78;1.38;;;;;;;6.77;78.14;97736.28;4826857;29;20054;-83
2024/02/24 00:42:36;;;;;;;5.68;2.17;;;;;;;6.77;78.03;97725.81;4843525;29;20123;-82
2024/02/24 00:45:03;;;;;;;3.45;1.85;;;;;;;6.77;78.42;97736.28;4843761;29;20085;-81
2024/02/24 00:47:30;;;;;;;3.38;1.70;;;;;;;6.75;77.83;97732.94;4843077;29;20058;-83
2024/02/24 00:49:56;;;;;;;2.60;1.73;;;;;;;6.74;78.39;97736.50;4843334;29;20054;-82
2024/02/24 00:52:25;;;;;;;3.28;1.88;;;;;;;6.73;78.27;97733.03;4843551;29;20472;-83
2024/02/24 00:54:52;;;;;;;5.53;1.77;;;;;;;6.73;78.10;97740.88;4843427;29;20189;-80
2024/02/24 00:57:18;;;;;;;3.88;1.58;;;;;;;6.73;78.06;97746.09;4843199;29;20144;-83
2024/02/24 00:59:45;;;;;;;3.42;1.60;;;;;;;6.72;77.90;97741.00;4842663;29;20599;-81
2024/02/24 01:02:12;;;;;;;4.78;1.70;;;;;;;6.71;78.19;97737.56;4827042;29;20133;-80
2024/02/24 01:04:38;;;;;;;3.00;1.70;;;;;;;6.71;77.91;97740.16;4843288;29;20469;-80
2024/02/24 01:07:06;;;;;;;2.92;1.42;;;;;;;6.71;77.96;97731.47;4843270;29;20066;-80
2024/02/24 01:09:33;;;;;;;5.45;1.50;;;;;;;6.69;78.08;97733.41;4843172;29;20111;-87
2024/02/24 01:12:02;;;;;;;5.85;1.60;;;;;;;6.69;78.12;97734.22;4843045;29;20066;-80
2024/02/24 01:14:29;;;;;;;4.80;1.77;;;;;;;6.69;78.15;97741.25;4843000;29;20140;-80
2024/02/24 01:16:55;;;;;;;3.13;1.70;;;;;;;6.68;78.10;97737.78;4842800;29;20522;-80
2024/02/24 01:19:22;;;;;;;4.45;1.90;;;;;;;6.66;78.44;97737.06;4842828;29;20136;-81
2024/02/24 01:21:48;;;;;;;3.10;1.73;;;;;;;6.65;79.00;97744.06;4843004;29;20050;-80
2024/02/24 01:24:15;;;;;;;4.68;2.00;;;;;;;6.69;79.29;97743.84;4842794;29;20062;-80
2024/02/24 01:26:41;;;;;;;4.75;1.58;;;;;;;6.70;79.44;97742.91;4826239;29;20136;-83
2024/02/24 01:29:08;;;;;;;3.75;1.73;;;;;;;6.71;79.21;97747.16;4842242;29;20181;-85
2024/02/24 01:31:35;;;;;;;2.60;1.35;;;;;;;6.73;79.05;97745.28;4825433;29;20514;-83
2024/02/24 01:34:01;;;;;;;5.93;1.67;;;;;;;6.76;78.82;97745.03;4842656;29;20104;-81
2024/02/24 01:36:28;;;;;;;3.28;1.40;;;;;;;6.76;78.95;97745.03;4842535;29;20061;-81
2024/02/24 01:38:54;;;;;;;2.78;1.63;;;;;;;6.77;78.73;97752.78;4825998;29;20164;-80
2024/02/24 01:41:21;;;;;;;4.30;1.70;;;;;;;6.77;78.38;97741.50;4842554;29;20148;-85
2024/02/24 01:43:48;;;;;;;4.32;1.63;;;;;;;6.76;78.08;97748.50;4825851;29;20550;-82
2024/02/24 01:46:15;;;;;;;6.10;1.85;;;;;;;6.73;78.25;97740.88;4842427;29;20574;-80
2024/02/24 01:48:41;;;;;;;2.88;1.83;;;;;;;6.72;78.36;97752.28;4842188;29;20085;-84
2024/02/24 01:51:10;;;;;;;4.45;1.92;;;;;;;6.71;78.91;97747.16;4842379;29;20058;-81
2024/02/24 01:53:37;;;;;;;2.30;1.88;;;;;;;6.71;78.96;97747.16;4842260;29;20072;-81
2024/02/24 01:56:07;;;;;;;3.85;2.05;;;;;;;6.70;78.90;97753.34;4834636;29;20452;-81
2024/02/24 01:58:36;;;;;;;4.30;2.30;;;;;;;6.72;79.23;97754.06;4841803;29;20062;-81
2024/02/24 02:01:04;;;;;;;3.33;1.80;;;;;;;6.73;79.62;97753.13;4842320;29;20061;-83
2024/02/24 02:03:30;;;;;;;3.20;1.50;;;;;;;6.76;79.77;97758.13;4842281;29;20416;-82
2024/02/24 02:05:58;;;;;;;2.47;1.42;;;;;;;6.78;79.62;97761.47;4841991;29;20539;-81
2024/02/24 02:08:24;;;;;;;2.60;1.55;;;;;;;6.81;79.85;97752.56;4841660;29;20058;-80
2024/02/24 02:10:57;;;;;;;3.30;1.58;;;;;;;6.83;79.40;97755.88;4841711;29;20081;-82
2024/02/24 02:13:25;;;;;;;3.03;1.52;;;;;;;6.86;79.59;97755.66;4825655;29;20069;-80
2024/02/24 02:15:54;;;;;;;2.97;1.75;;;;;;;6.87;79.57;97766.03;4841599;29;20062;-81
2024/02/24 02:18:20;;;;;;;2.17;1.20;;;;;;;6.90;79.62;97772.81;4841518;29;20596;-81
2024/02/24 02:20:51;;;;;;;1.80;1.25;;;;;;;6.91;78.79;97771.84;4842060;29;20072;-80
2024/02/24 02:23:19;;;;;;;5.43;2.35;;;;;;;6.95;79.44;97769.84;4834195;29;20141;-80
2024/02/24 02:25:46;;;;;;;3.72;1.92;;;;;;;6.97;79.55;97767.94;4825398;29;20105;-84
2024/02/24 02:28:12;;;;;;;3.40;1.45;;;;;;;6.97;79.17;97755.72;4841475;29;20512;-82
2024/02/24 02:30:39;;;;;;;4.78;1.88;;;;;;;6.98;78.98;97756.53;4841464;29;20500;-81
2024/02/24 02:33:08;;;;;;;4.03;1.63;;;;;;;6.99;79.06;97756.41;4841488;29;20077;-80
2024/02/24 02:35:35;;;;;;;3.92;1.38;;;;;;;6.98;79.01;97765.22;4841516;29;20069;-80
2024/02/24 02:38:03;;;;;;;3.55;1.63;;;;;;;6.99;78.82;97761.66;4840861;29;20057;-81
2024/02/24 02:40:30;;;;;;;2.05;1.50;;;;;;;6.97;78.93;97766.19;4841672;29;20422;-80
2024/02/24 02:42:56;;;;;;;4.93;1.27;;;;;;;6.97;78.87;97765.34;4841020;29;20061;-81
2024/02/24 02:45:23;;;;;;;1.60;1.30;;;;;;;6.96;78.75;97755.81;4841398;29;20113;-84
2024/02/24 02:47:49;;;;;;;2.83;1.52;;;;;;;6.95;78.66;97754.97;4841072;29;20144;-80
2024/02/24 02:50:16;;;;;;;3.72;1.35;;;;;;;6.94;78.61;97753.31;4841136;29;20061;-82
2024/02/24 02:52:43;;;;;;;2.80;1.58;;;;;;;6.93;78.85;97756.88;4841534;29;20081;-84
2024/02/24 02:55:10;;;;;;;4.55;1.52;;;;;;;6.91;78.87;97759.63;4834076;29;20062;-81
2024/02/24 02:57:36;;;;;;;4.28;1.77;;;;;;;6.90;78.52;97757.09;4840696;29;20104;-80
2024/02/24 03:00:06;;;;;;;3.55;1.90;;;;;;;6.88;78.10;97765.06;4841051;29;20057;-81
2024/02/24 03:02:33;;;;;;;4.85;2.55;;;;;;;6.88;78.91;97770.28;4841161;29;20050;-81
2024/02/24 03:05:00;;;;;;;3.63;1.88;;;;;;;6.88;78.78;97759.03;4840733;29;20061;-84
2024/02/24 03:07:26;;;;;;;4.50;2.10;;;;;;;6.86;78.73;97761.75;4841056;29;20522;-82
2024/02/24 03:09:53;;;;;;;3.67;2.15;;;;;;;6.86;78.47;97763.50;4840805;29;20081;-81
2024/02/24 03:12:20;;;;;;;5.72;2.10;;;;;;;6.85;78.79;97762.69;4841102;29;20061;-81
2024/02/24 03:14:46;;;;;;;4.28;1.70;;;;;;;6.85;78.95;97764.47;4824408;29;20069;-84
2024/02/24 03:17:13;;;;;;;3.88;1.15;;;;;;;6.83;78.99;97756.72;4833255;29;20061;-82
2024/02/24 03:19:40;;;;;;;3.35;1.60;;;;;;;6.84;78.83;97766.25;4840447;29;20058;-81
2024/02/24 03:22:07;;;;;;;3.05;1.33;;;;;;;6.85;78.90;97765.31;4840655;29;20501;-80
2024/02/24 03:24:33;;;;;;;2.65;1.50;;;;;;;6.85;78.86;97767.94;4840567;29;20560;-82
2024/02/24 03:27:00;;;;;;;2.55;1.35;;;;;;;6.85;78.76;97777.53;4824464;29;20089;-83
2024/02/24 03:29:27;;;;;;;3.88;1.60;;;;;;;6.85;78.88;97777.53;4840550;29;20510;-81
2024/02/24 03:31:53;;;;;;;3.13;1.48;;;;;;;6.83;78.80;97777.66;4840397;29;20058;-83
2024/02/24 03:34:20;;;;;;;2.10;1.30;;;;;;;6.83;78.87;97774.19;4840680;29;20149;-81
2024/02/24 03:36:46;;;;;;;2.70;1.40;;;;;;;6.82;78.66;97770.75;4840519;29;20492;-80
2024/02/24 03:39:13;;;;;;;2.22;1.50;;;;;;;6.82;78.94;97769.91;4840331;29;20080;-82
2024/02/24 03:41:39;;;;;;;2.70;1.30;;;;;;;6.81;78.85;97776.09;4840436;29;20092;-81
2024/02/24 03:44:06;;;;;;;6.03;1.42;;;;;;;6.81;78.83;97774.34;4840237;29;20065;-82
2024/02/24 03:46:33;;;;;;;4.93;1.73;;;;;;;6.80;78.81;97775.25;4839991;29;20069;-81
2024/02/24 03:48:59;;;;;;;3.38;1.50;;;;;;;6.78;79.11;97780.59;4840077;29;20157;-82
2024/02/24 03:51:26;;;;;;;3.95;1.40;;;;;;;6.78;78.49;97785.00;4824065;29;20507;-80
2024/02/24 03:53:52;;;;;;;2.00;1.05;;;;;;;6.77;78.91;97791.19;4839558;29;20502;-80
2024/02/24 03:56:19;;;;;;;2.95;1.13;;;;;;;6.77;79.40;97791.19;4840067;29;20069;-83
2024/02/24 03:58:45;;;;;;;2.00;1.50;;;;;;;6.78;79.13;97798.09;4840381;29;20068;-82
2024/02/24 04:01:12;;;;;;;2.30;1.20;;;;;;;6.80;79.35;97795.34;4840644;29;20515;-81
2024/02/24 04:03:39;;;;;;;4.18;1.30;;;;;;;6.81;79.60;97800.47;4840528;29;20182;-80
2024/02/24 04:06:06;;;;;;;4.10;1.48;;;;;;;6.83;79.73;97800.34;4840317;29;20066;-80
2024/02/24 04:08:33;;;;;;;2.80;1.30;;;;;;;6.85;79.86;97801.94;4840212;29;20086;-80
2024/02/24 04:11:00;;;;;;;4.88;1.45;;;;;;;6.87;79.79;97802.63;4840282;29;20073;-83
2024/02/24 04:13:27;;;;;;;3.08;1.27;;;;;;;6.89;79.77;97805.97;4823825;29;20504;-81
2024/02/24 04:15:53;;;;;;;3.08;1.20;;;;;;;6.93;80.08;97818.81;4839889;29;20060;-81
2024/02/24 04:18:20;;;;;;;2.08;1.35;;;;;;;6.95;79.92;97815.13;4840002;29;20089;-84
2024/02/24 04:20:47;;;;;;;2.70;1.30;;;;;;;6.98;79.97;97816.69;4840217;29;20136;-81
2024/02/24 04:23:14;;;;;;;3.28;1.48;;;;;;;6.99;80.05;97816.59;4823894;29;20064;-81
2024/02/24 04:25:40;;;;;;;1.67;1.10;;;;;;;7.01;79.93;97821.72;4840106;29;20477;-80
2024/02/24 04:28:07;;;;;;;2.13;1.25;;;;;;;7.04;79.93;97826.72;4839967;29;20138;-83
2024/02/24 04:30:35;;;;;;;2.75;1.30;;;;;;;7.05;79.99;97823.16;4840310;29;20393;-80
2024/02/24 04:33:01;;;;;;;2.40;1.10;;;;;;;7.08;79.56;97825.56;4839816;29;20080;-82
2024/02/24 04:35:28;;;;;;;4.22;1.38;;;;;;;7.09;79.76;97823.75;4839979;29;20057;-80
2024/02/24 04:37:55;;;;;;;2.10;1.45;;;;;;;7.10;80.00;97826.25;4839290;29;20289;-86
2024/02/24 04:40:21;;;;;;;1.88;1.23;;;;;;;7.12;79.70;97829.59;4823804;29;20070;-82
2024/02/24 04:42:48;;;;;;;2.28;1.40;;;;;;;7.13;80.08;97823.41;4839954;29;20116;-84
2024/02/24 04:45:15;;;;;;;4.10;1.60;;;;;;;7.15;79.55;97823.31;4823298;29;20508;-83
2024/02/24 04:47:42;;;;;;;1.95;1.50;;;;;;;7.16;80.01;97833.66;4839779;29;20137;-81
2024/02/24 04:50:09;;;;;;;1.90;1.40;;;;;;;7.17;79.94;97832.72;4839646;29;20499;-81
2024/02/24 04:52:36;;;;;;;1.88;1.40;;;;;;;7.19;79.80;97840.47;4839978;29;20073;-80
2024/02/24 04:55:03;;;;;;;2.45;1.42;;;;;;;7.22;79.69;97844.63;4839399;29;20072;-82
2024/02/24 04:57:30;;;;;;;2.70;1.23;;;;;;;7.22;79.60;97836.78;4823346;29;20054;-80
2024/02/24 04:59:56;;;;;;;2.65;1.50;;;;;;;7.23;79.49;97835.81;4839758;29;20138;-83
2024/02/24 05:02:23;;;;;;;3.78;1.67;;;;;;;7.25;79.38;97847.03;4823460;29;20088;-81
2024/02/24 05:04:50;;;;;;;4.03;1.70;;;;;;;7.25;79.99;97847.03;4839832;29;20538;-81
2024/02/24 05:07:16;;;;;;;2.88;1.52;;;;;;;7.24;79.82;97855.78;4826442;29;20469;-80
2024/02/24 05:09:43;;;;;;;2.28;1.40;;;;;;;7.25;79.81;97853.06;4842568;29;20096;-83
2024/02/24 05:12:09;;;;;;;2.05;1.60;;;;;;;7.26;79.81;97851.31;4842840;29;20085;-82
2024/02/24 05:14:39;;;;;;;2.80;1.40;;;;;;;7.27;79.55;97858.19;4842925;29;20050;-81
2024/02/24 05:17:07;;;;;;;1.77;1.23;;;;;;;7.27;79.78;97851.19;4826000;29;20066;-84
2024/02/24 05:19:34;;;;;;;2.50;1.48;;;;;;;7.30;79.74;97857.97;4826389;29;20065;-82
2024/02/24 05:22:01;;;;;;;2.10;1.45;;;;;;;7.31;79.53;97854.41;4842583;29;20053;-81
2024/02/24 05:24:28;;;;;;;3.85;1.40;;;;;;;7.31;79.67;97854.41;4842890;29;20134;-84
2024/02/24 05:26:54;;;;;;;2.42;1.23;;;;;;;7.33;79.77;97851.69;4842393;29;20097;-81
2024/02/24 05:29:21;;;;;;;1.75;1.30;;;;;;;7.33;79.47;97854.28;4825989;29;20061;-82
2024/02/24 05:31:47;;;;;;;2.15;1.42;;;;;;;7.33;79.53;97852.50;4842624;29;20054;-81
2024/02/24 05:34:14;;;;;;;2.55;1.30;;;;;;;7.33;79.70;97852.50;4826257;29;20499;-80
2024/02/24 05:36:41;;;;;;;2.40;1.30;;;;;;;7.34;79.55;97862.03;4826029;29;20061;-82
2024/02/24 05:39:07;;;;;;;3.15;1.50;;;;;;;7.35;79.61;97861.09;4825856;29;20419;-80
2024/02/24 05:41:34;;;;;;;2.30;1.40;;;;;;;7.36;79.40;97861.94;4825901;29;20054;-80
2024/02/24 05:44:01;;;;;;;2.03;1.60;;;;;;;7.35;79.22;97871.56;4842420;29;20065;-82
2024/02/24 05:46:27;;;;;;;2.00;1.52;;;;;;;7.35;79.58;97865.47;4818484;29;20062;-82
2024/02/24 05:48:54;;;;;;;2.08;1.30;;;;;;;7.37;79.71;97866.22;4842238;29;20060;-80
2024/02/24 05:51:21;;;;;;;3.38;1.30;;;;;;;7.37;79.57;97868.81;4842108;29;20054;-80
2024/02/24 05:53:48;;;;;;;2.03;1.20;;;;;;;7.36;79.60;97865.34;4842333;29;20057;-80
2024/02/24 05:56:15;;;;;;;1.90;1.50;;;;;;;7.37;79.80;97864.41;4842323;29;20050;-80
2024/02/24 05:58:42;;;;;;;1.95;1.50;;;;;;;7.37;79.56;97867.03;4841773;29;20054;-84
2024/02/24 06:01:09;;;;;;;2.55;1.60;;;;;;;7.39;79.74;97878.22;4841821;29;20166;-82
2024/02/24 06:03:36;;;;;;;2.50;1.60;;;;;;;7.38;79.26;97878.34;4842144;29;20397;-81
2024/02/24 06:06:03;;;;;;;4.82;1.42;;;;;;;7.38;79.53;97879.19;4841729;29;20539;-81
2024/02/24 06:08:30;;;;;;;3.38;1.58;;;;;;;7.38;79.70;97880.94;4841837;29;20050;-80
2024/02/24 06:10:56;;;;;;;2.50;1.60;;;;;;;7.37;79.55;97887.97;4841925;29;20152;-82
2024/02/24 06:13:23;;;;;;;3.90;1.50;;;;;;;7.37;79.82;97884.53;4841884;29;20468;-83
2024/02/24 06:15:49;;;;;;;1.70;1.42;;;;;;;7.37;79.66;97890.56;4825376;29;20061;-81
2024/02/24 06:18:16;;;;;;;2.53;1.48;;;;;;;7.37;79.78;97895.81;4824598;29;20114;-81
2024/02/24 06:20:43;;;;;;;1.60;1.20;;;;;;;7.37;79.84;97901.03;4841650;29;20133;-83
2024/02/24 06:23:09;;;;;;;2.25;1.40;;;;;;;7.39;79.60;97900.94;4841805;29;20092;-81
2024/02/24 06:25:37;;;;;;;2.13;1.55;;;;;;;7.39;79.32;97898.31;4825550;29;20110;-80
2024/02/24 06:28:03;;;;;;;4.35;1.60;;;;;;;7.38;79.36;97902.75;4841186;29;20504;-82
2024/02/24 06:30:30;;;;;;;2.28;1.88;;;;;;;7.38;79.56;97896.66;4841572;29;20088;-81
2024/02/24 06:32:56;;;;;;;3.28;1.90;;;;;;;7.38;79.43;97901.91;4841304;29;20140;-81
2024/02/24 06:35:23;;;;;;;3.03;2.00;;;;;;;7.36;79.45;97904.63;4841276;29;20054;-81
2024/02/24 06:37:50;;;;;;;2.33;1.50;;;;;;;7.35;79.35;97905.56;4841145;29;20061;-84
2024/02/24 06:40:16;;;;;;;1.85;1.60;;;;;;;7.34;79.07;97913.53;4840743;29;20090;-82
2024/02/24 06:42:58;;;;;;;3.75;1.40;;;;;;;7.32;78.87;97918.06;4840910;29;20149;-81
2024/02/24 06:45:25;;;;;;;2.65;1.63;;;;;;;7.29;78.89;97929.59;4840887;29;20108;-82
2024/02/24 06:47:51;;;;;;;2.63;1.63;;;;;;;7.25;79.09;97915.88;4840575;29;20074;-80
2024/02/24 06:50:18;;;;;;;2.15;1.60;;;;;;;7.22;79.01;97926.56;4840746;29;20056;-81
2024/02/24 06:52:45;;;;;;;4.85;1.77;;;;;;;7.19;79.07;97925.97;4841028;29;20058;-83
2024/02/24 06:55:12;;;;;;;3.03;1.70;;;;;;;7.15;79.06;97926.16;4840823;29;20046;-80
2024/02/24 06:57:38;;;;;;;2.47;1.73;;;;;;;7.14;79.42;97940.22;4840460;29;20054;-80
2024/02/24 07:00:06;;;;;;;3.03;1.77;;;;;;;7.14;79.45;97940.22;4824547;29;20088;-82
2024/02/24 07:02:32;;;;;;;2.63;2.00;;;;;;;7.13;79.85;97940.31;4840363;29;20073;-81
2024/02/24 07:05:02;;;;;;;3.33;2.00;;;;;;;7.13;80.21;97941.16;4840960;29;20423;-80
2024/02/24 07:07:28;;;;;;;2.10;1.70;;;;;;;7.14;80.46;97950.69;4840635;29;20127;-82
2024/02/24 07:09:55;;;;;;;2.78;1.77;;;;;;;7.17;80.37;97952.22;4840233;29;20512;-81
2024/02/24 07:12:21;;;;;;;2.35;1.77;;;;;;;7.20;80.42;97957.25;4824201;29;20119;-82
2024/02/24 07:14:48;;;;;;;2.20;2.00;;;;;;;7.22;80.30;97954.53;4840351;29;20389;-82
2024/02/24 07:17:15;;;;;;;2.03;1.65;;;;;;;7.25;80.59;97954.31;4840489;29;20053;-81
2024/02/24 07:19:42;;;;;;;2.28;1.70;;;;;;;7.28;80.30;97965.38;4840444;29;20050;-81
2024/02/24 07:22:08;;;;;;;1.95;1.33;;;;;;;7.30;80.13;97968.72;4840472;29;20153;-81
2024/02/24 07:24:35;;;;;;;2.47;1.70;;;;;;;7.34;80.31;97968.50;4840428;29;20475;-80
2024/02/24 07:27:01;;;;;;;2.00;1.58;;;;;;;7.36;80.45;97983.16;4840155;29;20056;-81
2024/02/24 07:29:29;;;;;;;1.98;1.77;;;;;;;7.40;80.49;97984.59;4839127;29;20153;-82
2024/02/24 07:31:55;;;;;;;1.88;1.55;;;;;;;7.43;80.35;97979.16;4840655;29;20107;-81
2024/02/24 07:34:22;;;;;;;2.40;1.60;;;;;;;7.48;80.50;97983.22;4839375;29;20069;-82
2024/02/24 07:36:49;;;;;;;3.42;1.73;;;;;;;7.50;80.47;97978.69;4838397;29;20062;-80
2024/02/24 07:39:15;;;;;;;2.30;1.80;;;;;;;7.53;80.14;97987.16;4838066;29;20133;-82
2024/02/24 07:41:42;;;;;;;2.13;1.50;;;;;;;7.54;80.38;97985.38;4838767;29;20153;-81
2024/02/24 07:44:08;;;;;;;1.75;1.58;;;;;;;7.58;80.59;97994.66;4838985;29;20050;-81
2024/02/24 07:46:51;;;;;;;1.73;1.40;;;;;;;7.56;78.85;97993.97;4839646;29;20054;-78
2024/02/24 07:49:17;;;;;;;2.17;1.43;;;;;;;7.62;80.32;97996.13;4840252;29;20102;-80
2024/02/24 07:51:44;;;;;;;1.90;1.58;;;;;;;7.65;80.52;98009.00;4839754;29;20054;-81
2024/02/24 07:54:11;;;;;;;5.30;3.10;;;;;;;7.69;80.18;98004.34;4839941;29;20050;-79
2024/02/24 07:56:37;;;;;;;3.22;2.50;;;;;;;7.71;80.12;98006.88;4824150;29;20058;-78
2024/02/24 07:59:04;;;;;;;3.15;2.47;;;;;;;7.73;80.16;98015.47;4823662;29;20304;-79
2024/02/24 08:01:30;;;;;;;2.78;2.10;;;;;;;7.74;79.54;98020.56;4823973;29;20584;-82
2024/02/24 08:03:57;;;;;;;2.53;1.77;;;;;;;7.74;79.87;98015.31;4840291;29;20085;-78
2024/02/24 08:06:24;;;;;;;2.40;1.98;;;;;;;7.74;79.69;98015.31;4840079;29;20054;-77
2024/02/24 08:08:50;;;;;;;2.67;1.90;;;;;;;7.75;79.79;98019.63;4839939;29;20054;-79
2024/02/24 08:11:17;;;;;;;2.92;1.90;;;;;;;7.75;79.83;98009.16;4823632;29;20062;-77
2024/02/24 08:13:43;;;;;;;2.47;1.60;;;;;;;7.78;79.77;98013.34;4840134;29;20066;-82
2024/02/24 08:16:10;;;;;;;1.95;1.60;;;;;;;7.77;79.62;98014.25;4839270;29;20505;-80
2024/02/24 08:18:37;;;;;;;3.72;1.70;;;;;;;7.79;79.71;98020.25;4838870;29;20054;-77
2024/02/24 08:21:08;;;;;;;2.80;1.50;;;;;;;7.77;78.64;98022.97;4839188;29;20068;-79
2024/02/24 08:23:35;;;;;;;2.38;1.48;;;;;;;7.80;79.58;98028.00;4838899;29;20061;-79
2024/02/24 08:26:02;;;;;;;2.95;1.67;;;;;;;7.82;80.02;98027.88;4823168;29;20478;-79
2024/02/24 08:28:29;;;;;;;2.25;1.45;;;;;;;7.82;79.87;98028.69;4822913;29;20546;-82
2024/02/24 08:30:56;;;;;;;2.03;1.52;;;;;;;7.87;80.43;98032.75;4839871;29;20056;-82
2024/02/24 08:33:22;;;;;;;5.53;1.90;;;;;;;7.88;80.44;98030.03;4823329;29;20097;-87
2024/02/24 08:35:50;;;;;;;2.30;1.60;;;;;;;7.92;80.30;98038.50;4839635;29;20046;-82
2024/02/24 08:38:17;;;;;;;1.90;1.45;;;;;;;7.94;80.17;98037.47;4839012;29;20062;-84
2024/02/24 08:40:44;;;;;;;2.28;1.63;;;;;;;7.98;80.87;98031.97;4833596;29;20060;-80
2024/02/24 08:43:11;;;;;;;3.38;1.60;;;;;;;8.04;80.77;98037.59;4826652;29;20133;-81
2024/02/24 08:45:37;;;;;;;1.80;1.60;;;;;;;8.10;81.03;98043.34;4843010;29;20161;-82
2024/02/24 08:48:05;;;;;;;1.63;1.40;;;;;;;8.15;81.07;98038.59;4842868;29;20127;-81
2024/02/24 08:50:31;;;;;;;2.70;1.50;;;;;;;8.20;80.57;98034.69;4842748;29;20050;-85
2024/02/24 08:52:58;;;;;;;3.13;1.70;;;;;;;8.26;80.29;98037.78;4842736;29;20057;-82
2024/02/24 08:55:24;;;;;;;2.72;1.55;;;;;;;8.30;80.19;98041.84;4842855;29;20089;-81
2024/02/24 08:57:51;;;;;;;2.63;1.48;;;;;;;8.32;79.80;98047.78;4842499;29;20050;-82
2024/02/24 09:00:18;;;;;;;1.60;1.33;;;;;;;8.35;79.84;98055.44;4842885;29;20149;-82
2024/02/24 09:02:45;;;;;;;2.33;1.70;;;;;;;8.37;79.65;98047.47;4826184;29;20068;-82
2024/02/24 09:05:11;;;;;;;1.52;1.42;;;;;;;8.39;80.05;98053.41;4842707;29;20141;-81
2024/02/24 09:07:38;;;;;;;2.38;1.80;;;;;;;8.40;79.62;98050.69;4842190;29;20064;-85
2024/02/24 09:10:05;;;;;;;2.92;1.60;;;;;;;8.42;80.00;98054.03;4826361;29;20050;-82
2024/02/24 09:12:34;;;;;;;2.45;1.50;;;;;;;8.44;79.74;98054.75;4841155;29;20058;-82
2024/02/24 09:15:01;;;;;;;1.40;1.30;;;;;;;8.47;79.68;98058.91;4842455;29;20068;-84
2024/02/24 09:17:29;;;;;;;3.03;1.40;;;;;;;8.48;79.71;98061.41;4842336;29;20069;-82
2024/02/24 09:19:56;;;;;;;2.97;1.58;;;;;;;8.50;79.74;98056.06;4825704;29;20065;-82
2024/02/24 09:22:22;;;;;;;2.00;1.27;;;;;;;8.53;80.22;98060.28;4842244;29;20058;-81
2024/02/24 09:24:48;;;;;;;3.75;1.63;;;;;;;8.56;80.44;98068.72;4842560;29;20054;-84
2024/02/24 09:27:15;;;;;;;2.35;1.50;;;;;;;8.61;80.26;98057.91;4842537;29;20085;-83
2024/02/24 09:29:42;;;;;;;2.80;1.50;;;;;;;8.64;79.79;98054.22;4825703;29;20058;-84
2024/02/24 09:32:08;;;;;;;2.45;1.50;;;;;;;8.68;80.56;98063.50;4825860;29;20063;-82
2024/02/24 09:34:35;;;;;;;3.28;1.58;;;;;;;8.73;80.75;98066.63;4842089;29;20476;-82
2024/02/24 09:37:03;;;;;;;2.40;1.70;;;;;;;8.78;79.72;98071.53;4842095;29;20087;-82
2024/02/24 09:39:30;;;;;;;2.40;1.80;;;;;;;8.79;79.74;98066.13;4841773;29;20412;-82
2024/02/24 09:42:03;;;;;;;3.60;1.58;;;;;;;8.79;76.09;98074.00;4842143;29;20081;-82
2024/02/24 09:44:29;;;;;;;2.28;1.85;;;;;;;8.82;78.46;98073.78;4825799;29;20144;-83
2024/02/24 09:47:00;;;;;;;2.83;1.80;;;;;;;8.82;78.27;98072.94;4825629;29;20050;-81
2024/02/24 09:49:29;;;;;;;2.97;2.13;;;;;;;8.85;79.35;98078.78;4841679;29;20141;-83
2024/02/24 09:51:57;;;;;;;2.50;1.55;;;;;;;8.91;79.89;98076.63;4841057;29;20054;-82
2024/02/24 09:54:24;;;;;;;2.47;1.70;;;;;;;8.94;80.11;98079.84;4825493;29;20153;-87
2024/02/24 09:56:53;;;;;;;2.42;1.90;;;;;;;8.99;79.69;98075.09;4841828;29;20571;-84
2024/02/24 09:59:22;;;;;;;2.42;1.50;;;;;;;9.07;80.42;98073.66;4825062;29;20065;-81
2024/02/24 10:01:49;;;;;;;2.58;1.80;;;;;;;9.12;80.07;98082.00;4842224;29;20058;-82
2024/02/24 10:04:16;;;;;;;2.03;1.80;;;;;;;9.19;79.72;98085.81;4841633;29;20691;-82
2024/02/24 10:06:43;;;;;;;2.08;1.65;;;;;;;9.24;79.58;98088.91;4841703;29;20141;-82
2024/02/24 10:09:12;;;;;;;2.35;1.77;;;;;;;9.28;77.75;98096.56;4841445;29;20073;-82
2024/02/24 10:11:39;;;;;;;2.80;1.77;;;;;;;9.35;79.11;98095.13;4841828;29;20066;-86
2024/02/24 10:14:07;;;;;;;2.25;1.70;;;;;;;9.37;79.41;98095.84;4825307;29;20058;-81
2024/02/24 10:16:37;;;;;;;3.15;2.05;;;;;;;9.40;77.81;98100.84;4841384;29;20575;-81
2024/02/24 10:19:05;;;;;;;2.67;1.70;;;;;;;9.44;78.68;98093.56;4841231;29;20046;-81
2024/02/24 10:21:33;;;;;;;2.20;1.90;;;;;;;9.47;79.04;98102.03;4841377;29;20057;-83
2024/02/24 10:24:00;;;;;;;2.05;1.55;;;;;;;9.52;78.66;98104.28;4824887;29;20066;-82
2024/02/24 10:26:27;;;;;;;3.63;1.90;;;;;;;9.56;79.07;98094.38;4841178;29;20058;-87
2024/02/24 10:28:54;;;;;;;3.42;1.65;;;;;;;9.57;78.10;98096.06;4841374;29;20224;-82
2024/02/24 10:31:26;;;;;;;2.33;1.85;;;;;;;9.57;76.53;98109.19;4841353;29;20104;-82
2024/02/24 10:33:54;;;;;;;2.72;1.92;;;;;;;9.60;77.81;98093.16;4841353;29;20054;-82
2024/02/24 10:36:22;;;;;;;3.17;2.05;;;;;;;9.62;78.41;98101.78;4841096;29;20534;-81
2024/02/24 10:38:49;;;;;;;3.13;1.92;;;;;;;9.67;78.51;98101.38;4824601;29;20056;-83
2024/02/24 10:41:21;;;;;;;;;;;;;;;9.67;70.90;98107.47;4826361;29;20089;-82
2024/02/24 10:43:53;;;;;;;2.90;2.10;;;;;;;9.77;77.84;98108.41;4841036;29;19960;-86
2024/02/24 10:46:35;;;;;;;3.50;1.92;;;;;;;9.81;78.10;98106.38;4826945;29;20061;-82
2024/02/24 10:49:03;;;;;;;5.10;2.00;;;;;;;9.84;77.80;98105.31;4840838;29;20061;-83
2024/02/24 10:51:34;;;;;;;4.03;2.00;;;;;;;9.86;76.93;98100.75;4840759;29;20072;-84
2024/02/24 10:54:10;;;;;;;;;;;;;;;9.89;71.02;98113.63;4841643;29;20054;-81
2024/02/24 10:56:37;;;;;;;4.47;1.83;;;;;;;10.00;77.75;98102.25;4840949;29;19968;-82
2024/02/24 10:59:10;;;;;;;5.07;1.80;;;;;;;10.01;76.43;98107.41;4840495;29;20136;-82
2024/02/24 11:01:46;;;;;;;3.60;1.65;;;;;;;10.04;75.35;98109.78;4824643;29;20061;-82
2024/02/24 11:04:15;;;;;;;2.95;1.42;;;;;;;10.11;74.12;98115.38;4840822;29;20061;-84
2024/02/24 11:06:48;;;;;;;2.20;1.45;;;;;;;10.17;73.67;98109.59;4824565;29;20077;-81
2024/02/24 11:09:24;;;;;;;3.40;1.45;;;;;;;10.20;71.13;98121.66;4840609;29;20058;-82
2024/02/24 11:11:51;;;;;;;1.92;1.38;;;;;;;10.26;76.15;98113.28;4840550;29;20149;-82
2024/02/24 11:14:21;;;;;;;2.67;1.40;;;;;;;10.29;75.76;98123.53;4840537;29;20132;-82
2024/02/24 11:16:48;;;;;;;2.78;1.50;;;;;;;10.35;77.46;98119.56;4840912;29;20133;-81
2024/02/24 11:19:47;;;;;;;2.95;1.63;;;;;;;10.34;70.46;98120.53;4840334;29;20054;-84
2024/02/24 11:22:24;;;;;;;4.05;2.00;;;;;;;10.41;73.39;98116.44;4840571;29;20050;-81
2024/02/24 11:25:04;;;;;;;5.60;2.28;;;;;;;10.43;73.38;98111.88;4840245;29;20111;-82
2024/02/24 11:27:34;;;;;;;2.00;1.80;;;;;;;10.48;75.49;98113.31;4840632;29;20141;-84
2024/02/24 11:30:35;;;;;;;2.33;1.85;;;;;;;10.42;72.55;98117.25;4840417;29;20064;-82
2024/02/24 11:33:27;;;;;;;3.58;2.00;;;;;;;10.36;71.44;98154.59;4840282;29;20057;-83
2024/02/24 11:35:55;;;;;;;1.70;1.10;;;;;;;10.23;70.92;98147.72;4840440;29;20062;-82
2024/02/24 11:38:24;;;;;;;1.30;1.13;;;;;;;10.02;70.06;98143.22;4840139;29;20054;-83
2024/02/24 11:40:52;;;;;;;2.83;1.25;;;;;;;9.78;71.16;98149.50;4840176;29;20057;-82
2024/02/24 11:43:19;;;;;;;3.38;1.23;;;;;;;9.50;71.90;98141.19;4840180;29;20144;-81